createdAt,value
2023-04-12T00:00:56.616Z,0.00
2023-04-12T00:01:57.340Z,0.00
2023-04-12T00:02:56.695Z,0.00
2023-04-12T00:03:56.955Z,0.00
2023-04-12T00:04:56.645Z,0.00
2023-04-12T00:05:56.568Z,0.00
2023-04-12T00:06:56.580Z,0.00
2023-04-12T00:07:56.593Z,0.00
2023-04-12T00:08:56.547Z,0.00
2023-04-12T00:09:56.531Z,0.00
2023-04-12T00:10:56.526Z,0.00
2023-04-12T00:11:56.568Z,0.00
2023-04-12T00:12:57.169Z,0.00
2023-04-12T00:13:56.657Z,0.00
2023-04-12T00:14:56.546Z,0.00
2023-04-12T00:15:56.508Z,0.00
2023-04-12T00:16:57.241Z,0.00
2023-04-12T00:17:56.534Z,0.00
2023-04-12T00:18:56.438Z,0.00
2023-04-12T00:19:56.431Z,0.00
2023-04-12T00:20:56.419Z,0.00
2023-04-12T00:21:56.404Z,0.00
2023-04-12T00:22:56.386Z,0.00
2023-04-12T00:23:56.859Z,0.00
2023-04-12T00:24:56.401Z,0.00
2023-04-12T00:25:56.399Z,0.00
2023-04-12T00:26:56.360Z,0.00
2023-04-12T00:27:56.369Z,0.00
2023-04-12T00:28:56.350Z,0.00
2023-04-12T00:29:57.178Z,0.00
2023-04-12T00:30:56.388Z,0.00
2023-04-12T00:31:56.329Z,0.00
2023-04-12T00:32:56.321Z,0.00
2023-04-12T00:33:56.694Z,0.00
2023-04-12T00:34:56.265Z,0.00
2023-04-12T00:35:56.290Z,0.00
2023-04-12T00:36:56.306Z,0.00
2023-04-12T00:37:56.237Z,0.00
2023-04-12T00:38:56.230Z,0.00
2023-04-12T00:39:56.266Z,0.00
2023-04-12T00:40:56.211Z,0.00
2023-04-12T00:41:56.201Z,0.00
2023-04-12T00:42:56.200Z,0.00
2023-04-12T00:43:56.987Z,0.00
2023-04-12T00:44:56.195Z,0.00
2023-04-12T00:45:56.167Z,0.00
2023-04-12T00:46:56.264Z,0.00
2023-04-12T00:47:56.213Z,0.00
2023-04-12T00:48:56.184Z,0.00
2023-04-12T00:49:56.193Z,0.00
2023-04-12T00:50:56.134Z,0.00
2023-04-12T00:51:56.101Z,0.00
2023-04-12T00:52:56.093Z,0.00
2023-04-12T00:53:56.194Z,0.00
2023-04-12T00:54:56.053Z,0.00
2023-04-12T00:55:56.091Z,0.00
2023-04-12T00:56:56.071Z,0.00
2023-04-12T00:57:56.048Z,0.00
2023-04-12T00:58:56.086Z,0.00
2023-04-12T00:59:56.028Z,0.00
2023-04-12T01:00:56.028Z,0.00
2023-04-12T01:01:56.049Z,0.00
2023-04-12T01:02:56.149Z,0.00
2023-04-12T01:03:56.137Z,0.00
2023-04-12T01:04:55.948Z,0.00
2023-04-12T01:05:55.943Z,0.00
2023-04-12T01:06:55.968Z,0.00
2023-04-12T01:07:55.924Z,0.00
2023-04-12T01:08:55.972Z,0.00
2023-04-12T01:09:55.901Z,0.00
2023-04-12T01:10:55.889Z,0.00
2023-04-12T01:11:55.926Z,0.00
2023-04-12T01:12:55.867Z,0.00
2023-04-12T01:13:56.078Z,0.00
2023-04-12T01:14:55.845Z,0.00
2023-04-12T01:15:55.865Z,0.00
2023-04-12T01:16:55.907Z,0.00
2023-04-12T01:17:55.905Z,0.00
2023-04-12T01:18:55.841Z,0.00
2023-04-12T01:19:55.803Z,0.00
2023-04-12T01:20:55.782Z,0.00
2023-04-12T01:21:55.769Z,0.00
2023-04-12T01:22:55.789Z,0.00
2023-04-12T01:23:56.060Z,0.00
2023-04-12T01:24:55.778Z,0.00
2023-04-12T01:25:55.777Z,0.00
2023-04-12T01:26:55.715Z,0.00
2023-04-12T01:27:55.768Z,0.00
2023-04-12T01:28:55.715Z,0.00
2023-04-12T01:29:55.683Z,0.00
2023-04-12T01:30:55.674Z,0.00
2023-04-12T01:31:55.716Z,0.00
2023-04-12T01:32:55.723Z,0.00
2023-04-12T01:33:56.025Z,0.00
2023-04-12T01:34:55.650Z,0.00
2023-04-12T01:35:55.669Z,0.00
2023-04-12T01:36:55.612Z,0.00
2023-04-12T01:37:55.679Z,0.00
2023-04-12T01:38:55.593Z,0.00
2023-04-12T01:39:56.187Z,0.00
2023-04-12T01:40:55.618Z,0.00
2023-04-12T01:41:55.572Z,0.00
2023-04-12T01:42:55.553Z,0.00
2023-04-12T01:43:55.918Z,0.00
2023-04-12T01:44:55.524Z,0.00
2023-04-12T01:45:55.596Z,0.00
2023-04-12T01:46:55.503Z,0.00
2023-04-12T01:47:55.549Z,0.00
2023-04-12T01:48:55.718Z,0.00
2023-04-12T01:49:55.481Z,0.00
2023-04-12T01:50:55.482Z,0.00
2023-04-12T01:51:55.520Z,0.00
2023-04-12T01:52:55.445Z,0.00
2023-04-12T01:53:55.820Z,0.00
2023-04-12T01:54:55.439Z,0.00
2023-04-12T01:55:55.415Z,0.00
2023-04-12T01:56:55.404Z,0.00
2023-04-12T01:57:55.392Z,0.00
2023-04-12T01:58:55.402Z,0.00
2023-04-12T01:59:55.389Z,0.00
2023-04-12T02:00:55.371Z,0.00
2023-04-12T02:01:55.422Z,0.00
2023-04-12T02:02:55.463Z,0.00
2023-04-12T02:03:55.546Z,0.00
2023-04-12T02:04:55.320Z,0.00
2023-04-12T02:05:55.310Z,0.00
2023-04-12T02:06:55.312Z,0.00
2023-04-12T02:07:55.302Z,0.00
2023-04-12T02:08:55.308Z,0.00
2023-04-12T02:09:55.271Z,0.00
2023-04-12T02:10:55.271Z,0.00
2023-04-12T02:11:55.242Z,0.00
2023-04-12T02:12:55.227Z,0.00
2023-04-12T02:13:55.613Z,0.00
2023-04-12T02:14:55.228Z,0.00
2023-04-12T02:15:55.212Z,0.00
2023-04-12T02:17:00.252Z,0.00
2023-04-12T02:17:55.223Z,0.00
2023-04-12T02:18:55.166Z,0.00
2023-04-12T02:19:55.236Z,0.00
2023-04-12T02:20:55.166Z,0.00
2023-04-12T02:21:55.143Z,0.00
2023-04-12T02:22:55.154Z,0.00
2023-04-12T02:23:55.419Z,0.00
2023-04-12T02:24:55.105Z,0.00
2023-04-12T02:25:55.094Z,0.00
2023-04-12T02:26:55.099Z,0.00
2023-04-12T02:27:55.102Z,0.00
2023-04-12T02:28:55.076Z,0.00
2023-04-12T02:29:55.057Z,0.00
2023-04-12T02:30:55.101Z,0.00
2023-04-12T02:31:55.060Z,0.00
2023-04-12T02:32:55.062Z,0.00
2023-04-12T02:33:55.329Z,0.00
2023-04-12T02:34:55.014Z,0.00
2023-04-12T02:35:55.045Z,0.00
2023-04-12T02:36:55.017Z,0.00
2023-04-12T02:37:54.985Z,0.00
2023-04-12T02:38:54.963Z,0.00
2023-04-12T02:39:54.985Z,0.00
2023-04-12T02:40:54.930Z,0.00
2023-04-12T02:41:54.984Z,0.00
2023-04-12T02:42:54.944Z,0.00
2023-04-12T02:43:55.142Z,0.00
2023-04-12T02:44:54.906Z,0.00
2023-04-12T02:45:54.935Z,0.00
2023-04-12T02:46:54.869Z,0.00
2023-04-12T02:47:54.985Z,0.00
2023-04-12T02:48:54.885Z,0.00
2023-04-12T02:49:54.868Z,0.00
2023-04-12T02:50:54.866Z,0.00
2023-04-12T02:51:54.838Z,0.00
2023-04-12T02:52:54.823Z,0.00
2023-04-12T02:53:54.910Z,0.00
2023-04-12T02:54:54.812Z,0.00
2023-04-12T02:55:54.792Z,0.00
2023-04-12T02:56:54.772Z,0.00
2023-04-12T02:57:54.785Z,0.00
2023-04-12T02:58:54.740Z,0.00
2023-04-12T02:59:54.765Z,0.00
2023-04-12T03:00:54.720Z,0.00
2023-04-12T03:01:54.874Z,0.00
2023-04-12T03:02:54.819Z,0.00
2023-04-12T03:03:55.003Z,0.00
2023-04-12T03:04:54.685Z,0.00
2023-04-12T03:05:55.228Z,0.00
2023-04-12T03:06:54.666Z,0.00
2023-04-12T03:07:54.674Z,0.00
2023-04-12T03:08:54.642Z,0.00
2023-04-12T03:09:54.641Z,0.00
2023-04-12T03:10:54.674Z,0.00
2023-04-12T03:11:54.628Z,0.00
2023-04-12T03:12:54.627Z,0.00
2023-04-12T03:13:54.851Z,0.00
2023-04-12T03:14:54.588Z,0.00
2023-04-12T03:15:54.593Z,0.00
2023-04-12T03:16:54.753Z,0.00
2023-04-12T03:17:54.608Z,0.00
2023-04-12T03:18:54.551Z,0.00
2023-04-12T03:19:54.547Z,0.00
2023-04-12T03:21:02.024Z,0.00
2023-04-12T03:21:54.557Z,0.00
2023-04-12T03:22:54.561Z,0.00
2023-04-12T03:23:54.912Z,0.00
2023-04-12T03:24:54.562Z,0.00
2023-04-12T03:25:54.522Z,0.00
2023-04-12T03:26:54.451Z,0.00
2023-04-12T03:27:54.472Z,0.00
2023-04-12T03:28:54.434Z,0.00
2023-04-12T03:29:54.441Z,0.00
2023-04-12T03:30:54.456Z,0.00
2023-04-12T03:31:54.441Z,0.00
2023-04-12T03:32:54.483Z,0.00
2023-04-12T03:33:54.371Z,0.00
2023-04-12T03:34:54.361Z,0.00
2023-04-12T03:35:54.373Z,0.00
2023-04-12T03:36:54.419Z,0.00
2023-04-12T03:37:54.360Z,0.00
2023-04-12T03:38:54.381Z,0.00
2023-04-12T03:39:54.340Z,0.00
2023-04-12T03:40:54.368Z,0.00
2023-04-12T03:41:54.312Z,0.00
2023-04-12T03:42:54.315Z,0.00
2023-04-12T03:43:54.340Z,0.00
2023-04-12T03:44:54.319Z,0.00
2023-04-12T03:45:54.297Z,0.00
2023-04-12T03:46:54.425Z,0.00
2023-04-12T03:47:54.264Z,0.00
2023-04-12T03:48:54.273Z,0.00
2023-04-12T03:50:09.808Z,0.00
2023-04-12T03:50:55.201Z,0.00
2023-04-12T03:51:54.182Z,0.00
2023-04-12T03:52:54.321Z,0.00
2023-04-12T03:53:54.401Z,0.00
2023-04-12T03:54:54.174Z,0.00
2023-04-12T03:55:54.161Z,0.00
2023-04-12T03:56:54.149Z,0.00
2023-04-12T03:57:54.129Z,0.00
2023-04-12T03:58:54.149Z,0.00
2023-04-12T03:59:54.144Z,0.00
2023-04-12T04:00:54.101Z,0.00
2023-04-12T04:01:54.098Z,0.00
2023-04-12T04:02:54.906Z,0.00
2023-04-12T04:03:54.212Z,0.00
2023-04-12T04:04:54.083Z,0.00
2023-04-12T04:05:54.070Z,0.00
2023-04-12T04:06:54.023Z,0.00
2023-04-12T04:07:54.058Z,0.00
2023-04-12T04:08:54.005Z,0.00
2023-04-12T04:09:54.033Z,0.00
2023-04-12T04:10:54.025Z,0.00
2023-04-12T04:11:54.008Z,0.00
2023-04-12T04:12:53.984Z,0.00
2023-04-12T04:13:53.959Z,0.00
2023-04-12T04:14:54.010Z,0.00
2023-04-12T04:15:53.967Z,0.00
2023-04-12T04:16:53.925Z,0.00
2023-04-12T04:17:54.008Z,0.00
2023-04-12T04:18:53.975Z,0.00
2023-04-12T04:19:53.904Z,0.00
2023-04-12T04:20:53.885Z,0.00
2023-04-12T04:21:53.869Z,0.00
2023-04-12T04:22:53.863Z,0.00
2023-04-12T04:23:53.863Z,0.00
2023-04-12T04:24:53.835Z,0.00
2023-04-12T04:25:53.834Z,0.00
2023-04-12T04:26:53.840Z,0.00
2023-04-12T04:27:54.029Z,0.00
2023-04-12T04:28:53.805Z,0.00
2023-04-12T04:29:54.723Z,0.00
2023-04-12T04:30:53.805Z,0.00
2023-04-12T04:31:53.887Z,0.00
2023-04-12T04:32:53.792Z,0.00
2023-04-12T04:33:53.798Z,0.00
2023-04-12T04:34:53.765Z,0.00
2023-04-12T04:35:53.766Z,0.00
2023-04-12T04:36:53.764Z,0.00
2023-04-12T04:37:53.734Z,0.00
2023-04-12T04:38:53.702Z,0.00
2023-04-12T04:39:53.730Z,0.00
2023-04-12T04:40:53.678Z,0.00
2023-04-12T04:41:53.695Z,0.00
2023-04-12T04:42:53.709Z,0.00
2023-04-12T04:43:53.790Z,0.00
2023-04-12T04:44:53.673Z,0.00
2023-04-12T04:45:53.664Z,5.62
2023-04-12T04:46:53.638Z,5.62
2023-04-12T04:47:53.657Z,5.62
2023-04-12T04:48:53.595Z,5.62
2023-04-12T04:49:53.772Z,5.62
2023-04-12T04:50:53.575Z,5.62
2023-04-12T04:51:53.562Z,5.62
2023-04-12T04:52:53.549Z,5.62
2023-04-12T04:53:53.598Z,5.62
2023-04-12T04:54:53.539Z,5.62
2023-04-12T04:55:53.535Z,5.62
2023-04-12T04:56:53.508Z,5.62
2023-04-12T04:57:53.494Z,5.62
2023-04-12T04:58:55.425Z,11.25
2023-04-12T04:59:53.587Z,11.25
2023-04-12T05:00:53.566Z,11.25
2023-04-12T05:01:53.517Z,11.25
2023-04-12T05:02:53.533Z,11.25
2023-04-12T05:03:53.576Z,11.25
2023-04-12T05:04:53.433Z,11.25
2023-04-12T05:05:53.429Z,16.88
2023-04-12T05:06:53.400Z,16.88
2023-04-12T05:07:53.377Z,16.88
2023-04-12T05:08:53.399Z,16.88
2023-04-12T05:09:53.379Z,16.88
2023-04-12T05:10:53.421Z,16.88
2023-04-12T05:11:53.399Z,16.88
2023-04-12T05:12:53.420Z,16.88
2023-04-12T05:13:53.371Z,16.88
2023-04-12T05:14:58.204Z,22.50
2023-04-12T05:15:54.319Z,22.50
2023-04-12T05:16:53.353Z,22.50
2023-04-12T05:17:53.406Z,22.50
2023-04-12T05:18:53.339Z,28.12
2023-04-12T05:19:53.260Z,28.12
2023-04-12T05:20:53.265Z,28.12
2023-04-12T05:21:53.240Z,33.75
2023-04-12T05:22:53.268Z,33.75
2023-04-12T05:23:53.217Z,28.12
2023-04-12T05:24:53.273Z,33.75
2023-04-12T05:25:53.242Z,33.75
2023-04-12T05:26:53.184Z,33.75
2023-04-12T05:27:53.193Z,33.75
2023-04-12T05:28:53.189Z,33.75
2023-04-12T05:29:53.149Z,33.75
2023-04-12T05:30:53.189Z,33.75
2023-04-12T05:31:53.155Z,39.38
2023-04-12T05:32:53.145Z,39.38
2023-04-12T05:33:53.124Z,39.38
2023-04-12T05:34:53.159Z,45.00
2023-04-12T05:35:53.289Z,45.00
2023-04-12T05:36:53.090Z,45.00
2023-04-12T05:37:53.111Z,45.00
2023-04-12T05:38:53.061Z,50.62
2023-04-12T05:39:53.727Z,50.62
2023-04-12T05:40:53.073Z,50.62
2023-04-12T05:41:53.026Z,50.62
2023-04-12T05:42:53.017Z,50.62
2023-04-12T05:43:53.001Z,50.62
2023-04-12T05:44:53.007Z,50.62
2023-04-12T05:45:53.138Z,56.25
2023-04-12T05:46:53.054Z,56.25
2023-04-12T05:47:53.039Z,61.88
2023-04-12T05:48:52.989Z,61.88
2023-04-12T05:49:53.005Z,67.50
2023-04-12T05:50:52.940Z,67.50
2023-04-12T05:51:52.947Z,67.50
2023-04-12T05:52:52.948Z,67.50
2023-04-12T05:53:52.924Z,67.50
2023-04-12T05:54:52.893Z,67.50
2023-04-12T05:55:52.921Z,73.12
2023-04-12T05:56:52.873Z,73.12
2023-04-12T05:57:52.857Z,73.12
2023-04-12T05:58:52.846Z,73.12
2023-04-12T05:59:52.835Z,73.12
2023-04-12T06:00:52.846Z,67.50
2023-04-12T06:01:52.864Z,67.50
2023-04-12T06:02:52.885Z,67.50
2023-04-12T06:03:52.950Z,73.12
2023-04-12T06:04:53.025Z,73.12
2023-04-12T06:05:52.782Z,78.75
2023-04-12T06:06:52.789Z,78.75
2023-04-12T06:07:52.807Z,84.38
2023-04-12T06:08:52.761Z,84.38
2023-04-12T06:09:52.741Z,84.38
2023-04-12T06:10:53.246Z,84.38
2023-04-12T06:11:52.730Z,84.38
2023-04-12T06:12:52.725Z,90.00
2023-04-12T06:13:52.711Z,90.00
2023-04-12T06:14:52.682Z,90.00
2023-04-12T06:15:52.750Z,84.38
2023-04-12T06:16:52.670Z,84.38
2023-04-12T06:17:52.787Z,90.00
2023-04-12T06:18:52.642Z,90.00
2023-04-12T06:19:52.705Z,95.62
2023-04-12T06:20:52.646Z,95.62
2023-04-12T06:21:52.602Z,90.00
2023-04-12T06:22:52.615Z,90.00
2023-04-12T06:23:52.665Z,95.62
2023-04-12T06:24:52.612Z,101.25
2023-04-12T06:25:52.554Z,101.25
2023-04-12T06:26:52.580Z,106.88
2023-04-12T06:27:52.549Z,112.50
2023-04-12T06:28:52.550Z,118.12
2023-04-12T06:29:52.527Z,123.75
2023-04-12T06:30:52.537Z,123.75
2023-04-12T06:31:52.906Z,123.75
2023-04-12T06:32:52.525Z,123.75
2023-04-12T06:33:52.523Z,123.75
2023-04-12T06:34:52.519Z,129.38
2023-04-12T06:35:52.606Z,135.00
2023-04-12T06:36:52.484Z,140.62
2023-04-12T06:37:52.506Z,135.00
2023-04-12T06:38:52.424Z,135.00
2023-04-12T06:39:52.407Z,146.25
2023-04-12T06:40:52.396Z,146.25
2023-04-12T06:41:52.390Z,151.88
2023-04-12T06:42:52.405Z,157.50
2023-04-12T06:43:52.400Z,168.75
2023-04-12T06:44:52.424Z,174.38
2023-04-12T06:45:52.403Z,163.12
2023-04-12T06:46:52.596Z,151.88
2023-04-12T06:47:52.380Z,157.50
2023-04-12T06:48:52.401Z,163.12
2023-04-12T06:49:53.934Z,174.38
2023-04-12T06:50:52.297Z,174.38
2023-04-12T06:51:52.301Z,168.75
2023-04-12T06:52:52.294Z,168.75
2023-04-12T06:53:52.260Z,168.75
2023-04-12T06:54:52.316Z,180.00
2023-04-12T06:55:52.242Z,180.00
2023-04-12T06:56:52.228Z,174.38
2023-04-12T06:57:52.261Z,168.75
2023-04-12T06:58:52.233Z,163.12
2023-04-12T06:59:52.223Z,174.38
2023-04-12T07:00:52.242Z,180.00
2023-04-12T07:01:52.202Z,191.25
2023-04-12T07:02:52.660Z,191.25
2023-04-12T07:03:52.288Z,191.25
2023-04-12T07:04:52.146Z,185.62
2023-04-12T07:05:52.138Z,180.00
2023-04-12T07:06:52.159Z,168.75
2023-04-12T07:07:52.141Z,168.75
2023-04-12T07:08:52.112Z,168.75
2023-04-12T07:09:52.115Z,168.75
2023-04-12T07:10:52.090Z,168.75
2023-04-12T07:11:52.080Z,168.75
2023-04-12T07:12:52.092Z,168.75
2023-04-12T07:13:52.061Z,163.12
2023-04-12T07:14:52.040Z,163.12
2023-04-12T07:15:52.027Z,163.12
2023-04-12T07:16:52.064Z,168.75
2023-04-12T07:17:52.090Z,168.75
2023-04-12T07:18:51.996Z,163.12
2023-04-12T07:19:52.016Z,151.88
2023-04-12T07:20:51.975Z,146.25
2023-04-12T07:21:51.979Z,140.62
2023-04-12T07:22:51.954Z,140.62
2023-04-12T07:23:51.969Z,151.88
2023-04-12T07:24:51.968Z,157.50
2023-04-12T07:25:51.917Z,168.75
2023-04-12T07:26:51.904Z,180.00
2023-04-12T07:27:52.028Z,185.62
2023-04-12T07:28:51.936Z,191.25
2023-04-12T07:29:51.876Z,196.88
2023-04-12T07:30:51.884Z,202.50
2023-04-12T07:31:51.857Z,202.50
2023-04-12T07:32:51.911Z,191.25
2023-04-12T07:33:52.073Z,185.62
2023-04-12T07:34:51.834Z,185.62
2023-04-12T07:35:51.869Z,185.62
2023-04-12T07:36:51.838Z,191.25
2023-04-12T07:37:51.809Z,196.88
2023-04-12T07:38:51.792Z,202.50
2023-04-12T07:39:51.981Z,208.12
2023-04-12T07:40:51.773Z,213.75
2023-04-12T07:41:51.752Z,219.38
2023-04-12T07:42:51.843Z,230.62
2023-04-12T07:43:51.776Z,241.88
2023-04-12T07:44:51.742Z,253.12
2023-04-12T07:45:51.766Z,253.12
2023-04-12T07:46:51.829Z,253.12
2023-04-12T07:47:51.722Z,258.75
2023-04-12T07:48:51.692Z,258.75
2023-04-12T07:49:51.694Z,264.38
2023-04-12T07:50:51.689Z,275.62
2023-04-12T07:51:51.688Z,281.25
2023-04-12T07:52:51.656Z,275.62
2023-04-12T07:53:51.638Z,253.12
2023-04-12T07:54:51.618Z,253.12
2023-04-12T07:55:51.667Z,270.00
2023-04-12T07:56:51.605Z,275.62
2023-04-12T07:57:51.653Z,281.25
2023-04-12T07:58:51.586Z,292.50
2023-04-12T07:59:51.576Z,292.50
2023-04-12T08:00:51.608Z,303.75
2023-04-12T08:01:51.573Z,315.00
2023-04-12T08:02:51.795Z,326.25
2023-04-12T08:03:51.663Z,343.12
2023-04-12T08:04:51.585Z,354.38
2023-04-12T08:05:51.709Z,371.25
2023-04-12T08:06:51.490Z,376.88
2023-04-12T08:07:51.496Z,393.75
2023-04-12T08:08:51.507Z,410.62
2023-04-12T08:09:51.490Z,421.88
2023-04-12T08:10:51.449Z,427.50
2023-04-12T08:11:51.475Z,416.25
2023-04-12T08:12:51.424Z,388.12
2023-04-12T08:13:51.424Z,365.62
2023-04-12T08:14:51.468Z,343.12
2023-04-12T08:15:51.474Z,298.12
2023-04-12T08:16:51.470Z,264.38
2023-04-12T08:17:51.437Z,264.38
2023-04-12T08:18:51.357Z,275.62
2023-04-12T08:19:51.356Z,281.25
2023-04-12T08:20:51.500Z,292.50
2023-04-12T08:21:59.591Z,303.75
2023-04-12T08:22:51.311Z,309.38
2023-04-12T08:23:51.323Z,286.88
2023-04-12T08:24:51.292Z,264.38
2023-04-12T08:25:51.323Z,247.50
2023-04-12T08:26:51.286Z,230.62
2023-04-12T08:27:51.481Z,225.00
2023-04-12T08:28:51.329Z,241.88
2023-04-12T08:29:51.242Z,270.00
2023-04-12T08:30:51.338Z,298.12
2023-04-12T08:31:51.257Z,320.62
2023-04-12T08:32:51.482Z,343.12
2023-04-12T08:33:51.227Z,365.62
2023-04-12T08:34:51.186Z,405.00
2023-04-12T08:35:51.217Z,438.75
2023-04-12T08:36:51.236Z,478.12
2023-04-12T08:37:51.240Z,511.88
2023-04-12T08:38:51.150Z,545.62
2023-04-12T08:39:51.176Z,590.62
2023-04-12T08:40:51.105Z,618.75
2023-04-12T08:41:51.105Z,646.88
2023-04-12T08:42:51.154Z,646.88
2023-04-12T08:43:51.267Z,663.75
2023-04-12T08:44:51.101Z,658.12
2023-04-12T08:45:51.109Z,663.75
2023-04-12T08:46:53.410Z,691.88
2023-04-12T08:47:51.156Z,759.38
2023-04-12T08:48:51.152Z,860.62
2023-04-12T08:49:51.054Z,1018.12
2023-04-12T08:50:51.028Z,973.12
2023-04-12T08:51:51.033Z,973.12
2023-04-12T08:52:50.984Z,1018.12
2023-04-12T08:53:51.012Z,1029.38
2023-04-12T08:54:51.061Z,939.38
2023-04-12T08:55:51.024Z,911.25
2023-04-12T08:56:51.008Z,995.62
2023-04-12T08:57:51.043Z,1074.38
2023-04-12T08:58:52.053Z,1057.50
2023-04-12T08:59:51.092Z,1209.38
2023-04-12T09:00:50.922Z,1220.62
2023-04-12T09:01:50.966Z,1243.12
2023-04-12T09:02:51.175Z,1209.38
2023-04-12T09:03:51.243Z,1248.75
2023-04-12T09:04:51.128Z,1153.12
2023-04-12T09:05:51.799Z,1057.50
2023-04-12T09:06:50.877Z,1333.12
2023-04-12T09:07:50.843Z,1462.50
2023-04-12T09:08:50.820Z,1378.12
2023-04-12T09:09:50.852Z,1265.62
2023-04-12T09:10:50.800Z,1288.12
2023-04-12T09:11:50.804Z,1440.00
2023-04-12T09:12:52.418Z,1305.00
2023-04-12T09:13:50.804Z,1423.12
2023-04-12T09:14:50.965Z,1400.62
2023-04-12T09:15:50.840Z,1552.50
2023-04-12T09:16:50.805Z,1468.12
2023-04-12T09:17:50.897Z,1732.50
2023-04-12T09:21:07.604Z,1783.12
2023-04-12T09:22:06.956Z,1816.88
2023-04-12T09:23:06.944Z,1788.75
2023-04-12T09:24:06.963Z,1800.00
2023-04-12T09:25:06.919Z,2188.12
2023-04-12T09:26:06.940Z,2266.88
2023-04-12T09:27:06.953Z,2486.25
2023-04-12T09:28:06.933Z,2418.75
2023-04-12T09:29:06.976Z,1980.00
2023-04-12T09:30:06.918Z,2238.75
2023-04-12T09:31:07.001Z,2272.50
2023-04-12T09:32:06.889Z,2075.62
2023-04-12T09:33:06.943Z,2368.12
2023-04-12T09:34:06.828Z,2430.00
2023-04-12T09:35:06.828Z,2514.38
2023-04-12T09:36:06.853Z,2328.75
2023-04-12T09:37:06.800Z,1991.25
2023-04-12T09:38:06.807Z,1254.38
2023-04-12T09:39:06.819Z,995.62
2023-04-12T09:40:06.814Z,916.88
2023-04-12T09:41:07.623Z,1220.62
2023-04-12T09:42:12.357Z,1991.25
2023-04-12T09:43:07.774Z,1040.62
2023-04-12T09:44:06.764Z,978.75
2023-04-12T09:45:06.725Z,866.25
2023-04-12T09:46:06.817Z,849.38
2023-04-12T09:47:06.709Z,804.38
2023-04-12T09:48:06.764Z,787.50
2023-04-12T09:49:06.709Z,748.12
2023-04-12T09:50:06.670Z,748.12
2023-04-12T09:51:06.693Z,742.50
2023-04-12T09:52:06.633Z,742.50
2023-04-12T09:53:06.675Z,765.00
2023-04-12T09:54:06.616Z,1299.38
2023-04-12T09:55:06.630Z,804.38
2023-04-12T09:56:06.595Z,832.50
2023-04-12T09:57:06.626Z,855.00
2023-04-12T09:58:06.563Z,871.88
2023-04-12T09:59:06.579Z,1051.88
2023-04-12T10:00:06.598Z,1029.38
2023-04-12T10:01:06.589Z,1136.25
2023-04-12T10:02:06.621Z,1018.12
2023-04-12T10:03:06.692Z,1170.00
2023-04-12T10:04:06.794Z,1035.00
2023-04-12T10:05:06.751Z,1074.38
2023-04-12T10:06:06.481Z,1029.38
2023-04-12T10:07:06.517Z,967.50
2023-04-12T10:08:06.487Z,945.00
2023-04-12T10:09:06.521Z,905.62
2023-04-12T10:10:06.461Z,922.50
2023-04-12T10:11:06.461Z,821.25
2023-04-12T10:12:06.483Z,810.00
2023-04-12T10:13:06.493Z,815.62
2023-04-12T10:14:06.407Z,776.25
2023-04-12T10:15:06.396Z,753.75
2023-04-12T10:16:06.410Z,770.62
2023-04-12T10:17:06.369Z,804.38
2023-04-12T10:18:06.372Z,821.25
2023-04-12T10:19:06.405Z,877.50
2023-04-12T10:20:06.332Z,838.12
2023-04-12T10:21:06.322Z,855.00
2023-04-12T10:22:06.361Z,810.00
2023-04-12T10:23:06.306Z,776.25
2023-04-12T10:24:06.287Z,815.62
2023-04-12T10:25:06.298Z,905.62
2023-04-12T10:26:06.272Z,916.88
2023-04-12T10:27:06.287Z,804.38
2023-04-12T10:28:06.301Z,742.50
2023-04-12T10:29:06.269Z,748.12
2023-04-12T10:30:06.236Z,781.88
2023-04-12T10:31:06.291Z,905.62
2023-04-12T10:32:06.282Z,950.62
2023-04-12T10:33:06.344Z,787.50
2023-04-12T10:34:06.206Z,815.62
2023-04-12T10:35:06.330Z,1051.88
2023-04-12T10:36:06.258Z,1012.50
2023-04-12T10:37:06.259Z,1029.38
2023-04-12T10:38:06.151Z,1130.62
2023-04-12T10:39:06.166Z,770.62
2023-04-12T10:40:06.174Z,770.62
2023-04-12T10:41:06.134Z,832.50
2023-04-12T10:42:06.188Z,1012.50
2023-04-12T10:43:06.118Z,838.12
2023-04-12T10:44:06.124Z,883.12
2023-04-12T10:45:06.107Z,804.38
2023-04-12T10:46:06.087Z,1136.25
2023-04-12T10:47:06.116Z,1293.75
2023-04-12T10:48:06.126Z,1423.12
2023-04-12T10:49:06.040Z,1507.50
2023-04-12T10:50:06.112Z,1040.62
2023-04-12T10:51:06.053Z,1552.50
2023-04-12T10:52:06.061Z,1096.88
2023-04-12T10:53:06.021Z,1901.25
2023-04-12T10:54:05.993Z,1957.50
2023-04-12T10:55:06.007Z,1282.50
2023-04-12T10:56:05.951Z,1175.62
2023-04-12T10:57:05.960Z,1839.38
2023-04-12T10:58:05.966Z,1603.12
2023-04-12T10:59:05.986Z,1636.88
2023-04-12T11:00:05.955Z,1726.88
2023-04-12T11:01:06.003Z,1546.88
2023-04-12T11:02:06.134Z,1001.25
2023-04-12T11:03:06.075Z,1074.38
2023-04-12T11:04:06.145Z,1158.75
2023-04-12T11:05:05.924Z,1001.25
2023-04-12T11:06:20.121Z,1181.25
2023-04-12T11:07:06.871Z,1350.00
2023-04-12T11:08:05.829Z,1276.88
2023-04-12T11:09:05.814Z,1361.25
2023-04-12T11:10:05.819Z,990.00
2023-04-12T11:11:05.811Z,950.62
2023-04-12T11:12:06.922Z,877.50
2023-04-12T11:13:05.879Z,905.62
2023-04-12T11:14:05.766Z,950.62
2023-04-12T11:15:05.768Z,1293.75
2023-04-12T11:16:05.924Z,922.50
2023-04-12T11:17:05.913Z,922.50
2023-04-12T11:18:05.762Z,1113.75
2023-04-12T11:19:05.751Z,1018.12
2023-04-12T11:20:05.734Z,973.12
2023-04-12T11:21:05.753Z,916.88
2023-04-12T11:22:05.725Z,956.25
2023-04-12T11:23:05.742Z,894.38
2023-04-12T11:24:05.688Z,900.00
2023-04-12T11:25:05.722Z,883.12
2023-04-12T11:26:05.651Z,849.38
2023-04-12T11:27:05.621Z,731.25
2023-04-12T11:28:17.243Z,680.62
2023-04-12T11:29:06.647Z,658.12
2023-04-12T11:30:05.625Z,618.75
2023-04-12T11:31:05.660Z,585.00
2023-04-12T11:32:05.702Z,540.00
2023-04-12T11:33:05.676Z,528.75
2023-04-12T11:34:05.546Z,585.00
2023-04-12T11:35:05.547Z,641.25
2023-04-12T11:36:05.544Z,658.12
2023-04-12T11:37:05.525Z,720.00
2023-04-12T11:38:05.539Z,736.88
2023-04-12T11:39:05.526Z,720.00
2023-04-12T11:40:05.572Z,742.50
2023-04-12T11:41:05.515Z,686.25
2023-04-12T11:42:05.475Z,669.38
2023-04-12T11:43:05.484Z,646.88
2023-04-12T11:44:05.463Z,646.88
2023-04-12T11:45:14.752Z,601.88
2023-04-12T11:46:06.538Z,551.25
2023-04-12T11:47:05.422Z,523.12
2023-04-12T11:48:05.426Z,478.12
2023-04-12T11:49:05.453Z,444.38
2023-04-12T11:50:05.483Z,427.50
2023-04-12T11:51:11.418Z,433.12
2023-04-12T11:52:06.412Z,478.12
2023-04-12T11:53:05.354Z,523.12
2023-04-12T11:54:05.356Z,534.38
2023-04-12T11:55:05.481Z,528.75
2023-04-12T11:56:05.344Z,528.75
2023-04-12T11:57:05.948Z,528.75
2023-04-12T11:58:05.299Z,551.25
2023-04-12T11:59:05.282Z,573.75
2023-04-12T12:00:05.350Z,579.38
2023-04-12T12:01:05.262Z,573.75
2023-04-12T12:02:20.975Z,585.00
2023-04-12T12:03:08.374Z,579.38
2023-04-12T12:04:06.148Z,568.12
2023-04-12T12:05:05.387Z,585.00
2023-04-12T12:06:05.441Z,652.50
2023-04-12T12:07:05.288Z,748.12
2023-04-12T12:08:05.236Z,838.12
2023-04-12T12:09:05.228Z,810.00
2023-04-12T12:10:05.174Z,793.12
2023-04-12T12:11:08.377Z,759.38
2023-04-12T12:12:05.141Z,787.50
2023-04-12T12:13:05.150Z,708.75
2023-04-12T12:14:05.187Z,691.88
2023-04-12T12:15:05.125Z,720.00
2023-04-12T12:16:05.176Z,753.75
2023-04-12T12:17:05.294Z,770.62
2023-04-12T12:18:05.143Z,843.75
2023-04-12T12:19:05.160Z,928.12
2023-04-12T12:20:05.130Z,984.38
2023-04-12T12:21:05.046Z,1265.62
2023-04-12T12:22:05.038Z,1479.38
2023-04-12T12:23:05.033Z,1586.25
2023-04-12T12:24:05.064Z,1321.88
2023-04-12T12:25:05.015Z,984.38
2023-04-12T12:27:05.016Z,1119.38
2023-04-12T12:28:05.052Z,821.25
2023-04-12T12:29:04.984Z,787.50
2023-04-12T12:30:04.970Z,781.88
2023-04-12T12:31:04.987Z,832.50
2023-04-12T12:32:04.956Z,1046.25
2023-04-12T12:33:05.008Z,1057.50
2023-04-12T12:34:08.481Z,984.38
2023-04-12T12:35:04.915Z,967.50
2023-04-12T12:36:04.907Z,995.62
2023-04-12T12:37:04.940Z,1125.00
2023-04-12T12:38:04.939Z,1108.12
2023-04-12T12:39:04.920Z,1215.00
2023-04-12T12:40:04.883Z,1288.12
2023-04-12T12:41:04.846Z,1473.75
2023-04-12T12:42:04.844Z,1170.00
2023-04-12T12:43:04.868Z,1620.00
2023-04-12T12:44:04.822Z,1080.00
2023-04-12T12:45:04.809Z,1282.50
2023-04-12T12:46:04.852Z,1333.12
2023-04-12T12:47:13.914Z,1344.38
2023-04-12T12:48:05.928Z,1170.00
2023-04-12T12:49:04.781Z,1293.75
2023-04-12T12:50:04.756Z,1428.75